Time;durP1;ratioP1;P1;durP2;ratioP2;P2;SDS_P1;SDS_P2;PMS_P1;PMS_P2;Temp;Humidity;BMP_temperature;BMP_pressure;BME280_temperature;BME280_humidity;BME280_pressure;Samples;Min_cycle;Max_cycle;Signal;HPM_P1;HPM_P2
2022/03/17 00:02:10;;;;;;;;;;;21.60;38.70;;;;;;5073642;28;19978;-44
2022/03/17 00:04:37;;;;;;;;;;;21.60;38.60;;;;;;5074686;28;19925;-42
2022/03/17 00:07:05;;;;;;;;;;;21.60;38.60;;;;;;5074342;28;19924;-45
2022/03/17 00:09:32;;;;;;;;;;;21.60;38.70;;;;;;5074631;28;20338;-43
2022/03/17 00:11:59;;;;;;;;;;;21.60;38.70;;;;;;5073505;28;20380;-46
2022/03/17 00:14:26;;;;;;;;;;;21.60;38.70;;;;;;5074223;28;19924;-44
2022/03/17 00:16:53;;;;;;;;;;;21.60;38.70;;;;;;5074107;28;19925;-45
2022/03/17 00:19:20;;;;;;;;;;;21.60;38.70;;;;;;5073810;28;20018;-43
2022/03/17 00:21:47;;;;;;;;;;;21.60;38.70;;;;;;5073867;28;19967;-46
2022/03/17 00:24:14;;;;;;;;;;;21.60;38.70;;;;;;5074421;28;20287;-43
2022/03/17 00:26:41;;;;;;;;;;;21.60;38.70;;;;;;5074365;28;19996;-43
2022/03/17 00:29:08;;;;;;;;;;;21.60;39.30;;;;;;5073233;28;19967;-43
2022/03/17 00:31:38;;;;;;;;;;;21.60;38.70;;;;;;5074291;28;20343;-44
2022/03/17 00:34:06;;;;;;;;;;;21.60;38.70;;;;;;5073158;28;19928;-44
2022/03/17 00:36:34;;;;;;;;;;;21.60;38.70;;;;;;5074117;28;19947;-45
2022/03/17 00:39:04;;;;;;;;;;;21.60;38.70;;;;;;5073878;28;19928;-45
2022/03/17 00:41:31;;;;;;;;;;;21.60;38.70;;;;;;5074151;28;19974;-43
2022/03/17 00:43:59;;;;;;;;;;;21.60;38.70;;;;;;5055767;28;19928;-43
2022/03/17 00:46:26;;;;;;;;;;;21.60;38.70;;;;;;5074078;28;19979;-44
2022/03/17 00:48:53;;;;;;;;;;;21.60;38.70;;;;;;5073111;28;19924;-44
2022/03/17 00:51:20;;;;;;;;;;;21.60;38.70;;;;;;5073576;28;19970;-45
2022/03/17 00:53:47;;;;;;;;;;;21.60;38.70;;;;;;5074002;28;20299;-45
2022/03/17 00:56:14;;;;;;;;;;;21.60;38.70;;;;;;5073928;28;19924;-45
2022/03/17 00:58:45;;;;;;;;;;;21.60;38.70;;;;;;5072890;28;19970;-45
2022/03/17 01:01:13;;;;;;;;;;;21.60;38.70;;;;;;5073680;28;19928;-42
2022/03/17 01:03:41;;;;;;;;;;;21.60;38.70;;;;;;5073112;28;19960;-44
2022/03/17 01:06:08;;;;;;;;;;;21.60;38.70;;;;;;5073553;28;20023;-45
2022/03/17 01:08:35;;;;;;;;;;;21.50;38.60;;;;;;5073882;28;19924;-45
2022/03/17 01:11:03;;;;;;;;;;;21.60;38.70;;;;;;5073551;28;19955;-44
2022/03/17 01:13:30;;;;;;;;;;;21.50;38.60;;;;;;5072753;28;19924;-45
2022/03/17 01:15:57;;;;;;;;;;;21.60;38.70;;;;;;5073772;28;19968;-43
2022/03/17 01:18:25;;;;;;;;;;;21.60;38.60;;;;;;5072886;28;19931;-43
2022/03/17 01:20:51;;;;;;;;;;;21.60;38.70;;;;;;5073489;28;20331;-45
2022/03/17 01:23:19;;;;;;;;;;;21.50;38.60;;;;;;5073428;28;19925;-44
2022/03/17 01:25:46;;;;;;;;;;;21.60;38.60;;;;;;5073404;28;19971;-45
2022/03/17 01:28:12;;;;;;;;;;;21.50;38.60;;;;;;5072915;28;20273;-44
2022/03/17 01:30:39;;;;;;;;;;;21.60;38.70;;;;;;5073660;28;19964;-44
2022/03/17 01:33:06;;;;;;;;;;;21.60;38.70;;;;;;5072545;28;19925;-45
2022/03/17 01:35:33;;;;;;;;;;;21.50;38.60;;;;;;5073490;28;19998;-45
2022/03/17 01:38:00;;;;;;;;;;;21.50;38.60;;;;;;5073560;28;20276;-43
2022/03/17 01:40:27;;;;;;;;;;;21.50;38.60;;;;;;5073287;28;20019;-43
2022/03/17 01:42:54;;;;;;;;;;;21.50;38.60;;;;;;5072046;28;19946;-45
2022/03/17 01:45:21;;;;;;;;;;;21.50;38.60;;;;;;5053209;28;19979;-45
2022/03/17 01:47:48;;;;;;;;;;;21.50;38.60;;;;;;5055920;28;19971;-42
2022/03/17 01:50:16;;;;;;;;;;;21.50;38.60;;;;;;5072665;28;20426;-43
2022/03/17 01:52:43;;;;;;;;;;;21.50;38.60;;;;;;5059391;28;19931;-45
2022/03/17 01:55:12;;;;;;;;;;;21.50;38.60;;;;;;5076867;28;20437;-43
2022/03/17 01:57:39;;;;;;;;;;;21.50;38.60;;;;;;5077072;28;19924;-46
2022/03/17 02:00:09;;;;;;;;;;;21.50;38.60;;;;;;5076040;28;19977;-43
2022/03/17 02:02:35;;;;;;;;;;;21.50;38.60;;;;;;5077067;28;19956;-42
2022/03/17 02:05:03;;;;;;;;;;;21.50;38.60;;;;;;5076224;28;20330;-42
2022/03/17 02:07:30;;;;;;;;;;;21.50;38.60;;;;;;5076637;28;19928;-44
2022/03/17 02:09:57;;;;;;;;;;;21.50;38.60;;;;;;5076918;28;20330;-45
2022/03/17 02:15:10;;;;;;;;;;;21.50;38.60;;;;;;5076058;28;19932;-43
2022/03/17 02:17:39;;;;;;;;;;;21.50;38.60;;;;;;5076280;28;19971;-44
2022/03/17 02:20:10;;;;;;;;;;;21.50;38.60;;;;;;5075510;28;20330;-46
2022/03/17 02:22:42;;;;;;;;;;;21.50;38.60;;;;;;5076546;28;19924;-42
2022/03/17 02:27:54;;;;;;;;;;;21.50;38.60;;;;;;5076354;28;19925;-47
2022/03/17 02:30:22;;;;;;;;;;;21.50;38.60;;;;;;5075509;28;19951;-47
2022/03/17 02:32:50;;;;;;;;;;;21.50;38.60;;;;;;5076218;28;20445;-44
2022/03/17 02:35:22;;;;;;;;;;;21.50;38.60;;;;;;5075425;28;19956;-43
2022/03/17 02:37:49;;;;;;;;;;;21.50;38.60;;;;;;5076372;28;19924;-45
2022/03/17 02:40:17;;;;;;;;;;;21.50;38.60;;;;;;5076362;28;19964;-43
2022/03/17 02:42:45;;;;;;;;;;;21.50;38.60;;;;;;5076326;28;19956;-43
2022/03/17 02:45:12;;;;;;;;;;;21.50;38.60;;;;;;5075558;28;19983;-44
2022/03/17 02:47:41;;;;;;;;;;;21.50;38.60;;;;;;5075787;28;19928;-43
2022/03/17 02:50:12;;;;;;;;;;;21.50;38.60;;;;;;5075419;28;19964;-43
2022/03/17 02:52:40;;;;;;;;;;;21.50;38.60;;;;;;5075993;28;20340;-47
2022/03/17 02:55:11;;;;;;;;;;;21.50;38.60;;;;;;5076082;28;19925;-44
2022/03/17 02:57:41;;;;;;;;;;;21.50;38.60;;;;;;5075236;28;20384;-45
2022/03/17 03:00:10;;;;;;;;;;;21.50;38.60;;;;;;5074943;28;20012;-44
2022/03/17 03:02:37;;;;;;;;;;;21.50;38.60;;;;;;5075677;28;19931;-42
2022/03/17 03:05:05;;;;;;;;;;;21.50;38.60;;;;;;5075121;28;19924;-44
2022/03/17 03:07:32;;;;;;;;;;;21.50;38.60;;;;;;5075561;28;20127;-42
2022/03/17 03:10:00;;;;;;;;;;;21.50;38.60;;;;;;5075518;28;19974;-45
2022/03/17 03:12:26;;;;;;;;;;;21.50;38.60;;;;;;5075440;28;19970;-45
2022/03/17 03:14:53;;;;;;;;;;;21.50;38.60;;;;;;5066009;28;19925;-47
2022/03/17 03:17:23;;;;;;;;;;;21.50;38.60;;;;;;5055495;28;20288;-46
2022/03/17 03:19:51;;;;;;;;;;;21.50;38.60;;;;;;5061013;28;19924;-45
2022/03/17 03:22:18;;;;;;;;;;;21.50;38.60;;;;;;5074929;28;19971;-44
2022/03/17 03:24:45;;;;;;;;;;;21.50;38.60;;;;;;5075220;28;20415;-45
2022/03/17 03:27:12;;;;;;;;;;;21.50;38.60;;;;;;5075377;28;20354;-46
2022/03/17 03:29:40;;;;;;;;;;;21.50;38.60;;;;;;5074650;28;19925;-43
2022/03/17 03:32:07;;;;;;;;;;;21.50;38.60;;;;;;5075071;28;19924;-45
2022/03/17 03:34:34;;;;;;;;;;;21.50;38.60;;;;;;5074522;28;19964;-46
2022/03/17 03:39:47;;;;;;;;;;;21.50;38.60;;;;;;5074963;28;19924;-45
2022/03/17 03:42:14;;;;;;;;;;;21.50;38.60;;;;;;5075677;28;20253;-44
2022/03/17 03:44:41;;;;;;;;;;;21.50;38.60;;;;;;5074334;28;19970;-47
2022/03/17 03:47:08;;;;;;;;;;;21.50;38.60;;;;;;5074760;28;19960;-43
2022/03/17 03:49:39;;;;;;;;;;;21.50;38.60;;;;;;5073783;28;19924;-45
2022/03/17 03:52:07;;;;;;;;;;;21.50;38.60;;;;;;5074495;28;19924;-50
2022/03/17 03:54:34;;;;;;;;;;;21.50;38.60;;;;;;5074913;28;20265;-44
2022/03/17 03:57:02;;;;;;;;;;;21.50;38.60;;;;;;5075364;28;19924;-44
2022/03/17 03:59:29;;;;;;;;;;;21.50;38.60;;;;;;5074110;28;19928;-44
2022/03/17 04:02:03;;;;;;;;;;;21.50;38.60;;;;;;5074759;28;19963;-44
2022/03/17 04:04:31;;;;;;;;;;;21.50;38.60;;;;;;5074328;28;19925;-46
2022/03/17 04:07:00;;;;;;;;;;;21.50;38.60;;;;;;5074197;28;20433;-45
2022/03/17 04:09:31;;;;;;;;;;;21.50;38.60;;;;;;5074307;28;19978;-44
2022/03/17 04:11:58;;;;;;;;;;;21.50;38.60;;;;;;5074643;28;19970;-44
2022/03/17 04:14:25;;;;;;;;;;;21.50;38.60;;;;;;5074142;28;19924;-44
2022/03/17 04:16:52;;;;;;;;;;;21.50;38.60;;;;;;5054096;28;20038;-44
2022/03/17 04:19:19;;;;;;;;;;;21.50;38.60;;;;;;5054385;28;19968;-46
2022/03/17 04:21:47;;;;;;;;;;;21.50;38.60;;;;;;5070502;28;19925;-44
2022/03/17 04:24:15;;;;;;;;;;;21.50;38.60;;;;;;5074355;28;19963;-44
2022/03/17 04:26:42;;;;;;;;;;;21.50;38.60;;;;;;5074045;28;20023;-47
2022/03/17 04:29:10;;;;;;;;;;;21.50;38.60;;;;;;5073993;28;19971;-43
2022/03/17 04:31:38;;;;;;;;;;;21.50;38.60;;;;;;5073515;28;19951;-46
2022/03/17 04:34:05;;;;;;;;;;;21.50;38.60;;;;;;5073962;28;20011;-44
2022/03/17 04:36:32;;;;;;;;;;;21.50;38.60;;;;;;5073373;28;21856;-45
2022/03/17 04:38:59;;;;;;;;;;;21.50;38.60;;;;;;5073869;28;19925;-46
2022/03/17 04:41:26;;;;;;;;;;;21.50;38.60;;;;;;5073830;28;20379;-44
2022/03/17 04:43:54;;;;;;;;;;;21.50;38.60;;;;;;5074159;28;20364;-46
2022/03/17 04:46:21;;;;;;;;;;;21.50;38.60;;;;;;5073034;28;20437;-46
2022/03/17 04:48:49;;;;;;;;;;;21.40;38.50;;;;;;5073655;28;20016;-45
2022/03/17 04:51:16;;;;;;;;;;;21.50;38.60;;;;;;5072781;28;20429;-44
2022/03/17 04:53:43;;;;;;;;;;;21.50;38.60;;;;;;5074009;28;20018;-44
2022/03/17 04:56:11;;;;;;;;;;;21.50;38.60;;;;;;5073676;28;19951;-44
2022/03/17 04:58:40;;;;;;;;;;;21.50;38.60;;;;;;5074447;28;19968;-44
2022/03/17 05:01:08;;;;;;;;;;;21.40;38.60;;;;;;5072853;28;19924;-43
2022/03/17 05:03:36;;;;;;;;;;;21.50;38.60;;;;;;5073903;28;19925;-46
2022/03/17 05:06:04;;;;;;;;;;;21.50;38.60;;;;;;5072891;28;19974;-43
2022/03/17 05:08:35;;;;;;;;;;;21.40;38.50;;;;;;5073850;28;20307;-42
2022/03/17 05:11:03;;;;;;;;;;;21.40;38.50;;;;;;5056142;28;19967;-45
2022/03/17 05:13:30;;;;;;;;;;;21.40;38.60;;;;;;5073529;28;20034;-43
2022/03/17 05:15:58;;;;;;;;;;;21.40;38.50;;;;;;5073074;28;19971;-45
2022/03/17 05:18:25;;;;;;;;;;;21.50;38.60;;;;;;5073244;28;19924;-43
2022/03/17 05:20:52;;;;;;;;;;;21.40;38.50;;;;;;5072314;28;19925;-43
2022/03/17 05:23:20;;;;;;;;;;;21.40;38.60;;;;;;5077072;28;20433;-43
2022/03/17 05:25:48;;;;;;;;;;;21.50;38.60;;;;;;5077787;28;20051;-44
2022/03/17 05:28:15;;;;;;;;;;;21.50;38.60;;;;;;5077719;28;19947;-45
2022/03/17 05:30:42;;;;;;;;;;;21.50;38.60;;;;;;5076899;28;20047;-44
2022/03/17 05:33:11;;;;;;;;;;;21.40;38.60;;;;;;5077362;28;19974;-45
2022/03/17 05:35:39;;;;;;;;;;;21.50;38.60;;;;;;5076506;28;19970;-45
2022/03/17 05:38:06;;;;;;;;;;;21.50;38.60;;;;;;5077447;28;19974;-46
2022/03/17 05:40:33;;;;;;;;;;;21.40;38.50;;;;;;5077161;28;19925;-44
2022/03/17 05:43:01;;;;;;;;;;;21.50;38.60;;;;;;5077166;28;20019;-45
2022/03/17 05:45:28;;;;;;;;;;;21.50;38.60;;;;;;5059311;28;19924;-43
2022/03/17 05:47:56;;;;;;;;;;;21.50;38.60;;;;;;5077021;28;19956;-46
2022/03/17 05:50:24;;;;;;;;;;;21.50;38.60;;;;;;5077287;28;19970;-43
2022/03/17 05:52:52;;;;;;;;;;;21.50;38.60;;;;;;5076323;28;19926;-43
2022/03/17 05:55:20;;;;;;;;;;;21.50;38.60;;;;;;5076914;28;20027;-44
2022/03/17 05:57:48;;;;;;;;;;;21.50;38.50;;;;;;5076757;28;19972;-42
2022/03/17 06:00:17;;;;;;;;;;;21.50;38.50;;;;;;5076793;28;19960;-44
2022/03/17 06:02:44;;;;;;;;;;;21.50;38.50;;;;;;5058660;28;20019;-45
2022/03/17 06:05:12;;;;;;;;;;;21.50;38.50;;;;;;5077014;28;19924;-43
2022/03/17 06:07:39;;;;;;;;;;;21.50;38.40;;;;;;5075843;28;19925;-43
2022/03/17 06:10:08;;;;;;;;;;;21.50;38.40;;;;;;5076643;28;20027;-49
2022/03/17 06:12:35;;;;;;;;;;;21.50;38.40;;;;;;5076844;28;20289;-43
2022/03/17 06:15:03;;;;;;;;;;;21.50;38.40;;;;;;5076522;28;20019;-46
2022/03/17 06:17:36;;;;;;;;;;;21.50;38.40;;;;;;5075524;28;19960;-45
2022/03/17 06:20:04;;;;;;;;;;;21.50;38.40;;;;;;5076095;28;19983;-44
2022/03/17 06:22:31;;;;;;;;;;;21.50;38.40;;;;;;5075369;28;19975;-42
2022/03/17 06:24:58;;;;;;;;;;;21.50;38.30;;;;;;5076319;28;20031;-44
2022/03/17 06:27:26;;;;;;;;;;;21.50;38.30;;;;;;5076272;28;19931;-47
2022/03/17 06:29:53;;;;;;;;;;;21.60;38.40;;;;;;5076102;28;19924;-47
2022/03/17 06:32:20;;;;;;;;;;;21.60;38.40;;;;;;5075213;28;19924;-44
2022/03/17 06:34:47;;;;;;;;;;;21.60;38.30;;;;;;5076480;28;20019;-46
2022/03/17 06:37:14;;;;;;;;;;;21.60;38.30;;;;;;5075748;28;20035;-43
2022/03/17 06:39:40;;;;;;;;;;;21.60;38.30;;;;;;5058705;28;20352;-45
2022/03/17 06:42:07;;;;;;;;;;;21.60;38.30;;;;;;5076035;28;20467;-44
2022/03/17 06:44:34;;;;;;;;;;;21.60;38.30;;;;;;5076284;28;19964;-45
2022/03/17 06:47:01;;;;;;;;;;;21.60;38.30;;;;;;5075664;28;19977;-42
2022/03/17 06:49:28;;;;;;;;;;;21.60;38.20;;;;;;5075705;28;20459;-45
2022/03/17 06:51:56;;;;;;;;;;;21.60;38.20;;;;;;5074875;28;19924;-49
2022/03/17 06:54:22;;;;;;;;;;;21.60;38.10;;;;;;5075629;28;19924;-49
2022/03/17 06:56:49;;;;;;;;;;;21.70;38.20;;;;;;5075842;28;19978;-47
2022/03/17 06:59:16;;;;;;;;;;;21.70;38.10;;;;;;5075603;28;19925;-45
2022/03/17 07:01:43;;;;;;;;;;;21.70;38.10;;;;;;5074914;28;20442;-49
2022/03/17 07:04:10;;;;;;;;;;;21.70;38.10;;;;;;5075759;28;19928;-48
2022/03/17 07:06:37;;;;;;;;;;;21.70;38.10;;;;;;5075084;28;20007;-43
2022/03/17 07:09:04;;;;;;;;;;;21.70;38.10;;;;;;5075792;28;20023;-47
2022/03/17 07:11:31;;;;;;;;;;;21.70;38.00;;;;;;5075412;28;19928;-46
2022/03/17 07:13:58;;;;;;;;;;;21.70;38.00;;;;;;5075300;28;20368;-43
2022/03/17 07:16:25;;;;;;;;;;;21.70;38.00;;;;;;5075547;28;20353;-44
2022/03/17 07:18:52;;;;;;;;;;;21.70;37.90;;;;;;5055415;28;20016;-46
2022/03/17 07:21:19;;;;;;;;;;;21.80;38.00;;;;;;5054819;28;19967;-46
2022/03/17 07:23:46;;;;;;;;;;;21.80;37.90;;;;;;5072456;28;19956;-47
2022/03/17 07:26:13;;;;;;;;;;;21.80;37.90;;;;;;5075075;28;20380;-44
2022/03/17 07:28:40;;;;;;;;;;;21.80;37.90;;;;;;5075231;28;19971;-47
2022/03/17 07:31:07;;;;;;;;;;;21.80;37.90;;;;;;5074916;28;19925;-47
2022/03/17 07:33:34;;;;;;;;;;;21.80;37.90;;;;;;5074190;28;20376;-46
2022/03/17 07:36:03;;;;;;;;;;;21.80;37.80;;;;;;5074961;28;19968;-44
2022/03/17 07:38:30;;;;;;;;;;;21.80;37.80;;;;;;5074321;28;20023;-45
2022/03/17 07:40:57;;;;;;;;;;;21.80;37.80;;;;;;5075212;28;19924;-46
2022/03/17 07:43:25;;;;;;;;;;;21.80;37.70;;;;;;5074865;28;19945;-45
2022/03/17 07:45:55;;;;;;;;;;;21.80;37.70;;;;;;5074126;28;19963;-43
2022/03/17 07:48:22;;;;;;;;;;;21.90;37.80;;;;;;5073871;28;19963;-46
2022/03/17 07:50:50;;;;;;;;;;;21.90;37.70;;;;;;5074397;28;19950;-45
2022/03/17 07:53:17;;;;;;;;;;;21.90;38.30;;;;;;5073914;28;19931;-45
2022/03/17 07:55:44;;;;;;;;;;;21.90;37.70;;;;;;5074536;28;19971;-47
2022/03/17 07:58:12;;;;;;;;;;;21.90;38.30;;;;;;5074352;28;19924;-48
2022/03/17 08:00:39;;;;;;;;;;;21.90;37.60;;;;;;5074703;28;19964;-44
2022/03/17 08:03:07;;;;;;;;;;;21.90;37.60;;;;;;5074019;28;20279;-48
2022/03/17 08:05:34;;;;;;;;;;;22.00;37.70;;;;;;5074414;28;20391;-47
2022/03/17 08:08:02;;;;;;;;;;;22.00;37.60;;;;;;5073625;28;20438;-48
2022/03/17 08:10:29;;;;;;;;;;;22.00;37.60;;;;;;5074622;28;19955;-48
2022/03/17 08:12:56;;;;;;;;;;;22.00;37.50;;;;;;5074247;28;20026;-47
2022/03/17 08:15:23;;;;;;;;;;;22.00;37.50;;;;;;5074225;28;19972;-45
2022/03/17 08:17:49;;;;;;;;;;;22.00;37.50;;;;;;5074099;28;19946;-47
2022/03/17 08:20:16;;;;;;;;;;;22.00;37.50;;;;;;5073867;28;19924;-46
2022/03/17 08:22:43;;;;;;;;;;;22.00;37.40;;;;;;5055511;28;20011;-48
2022/03/17 08:25:10;;;;;;;;;;;22.10;37.50;;;;;;5074271;28;19925;-46
2022/03/17 08:27:38;;;;;;;;;;;22.10;37.50;;;;;;5074002;28;19971;-49
2022/03/17 08:30:06;;;;;;;;;;;22.10;37.40;;;;;;5074865;28;19924;-49
2022/03/17 08:32:33;;;;;;;;;;;22.10;37.30;;;;;;5073576;28;19924;-47
2022/03/17 08:35:00;;;;;;;;;;;22.10;37.30;;;;;;5074242;28;20035;-44
2022/03/17 08:37:27;;;;;;;;;;;22.10;37.30;;;;;;5073129;28;19951;-42
2022/03/17 08:39:54;;;;;;;;;;;22.10;37.30;;;;;;5073896;28;19932;-43
2022/03/17 08:42:21;;;;;;;;;;;22.10;37.30;;;;;;5074123;28;19968;-45
2022/03/17 08:44:48;;;;;;;;;;;22.10;37.20;;;;;;5073700;28;19971;-49
2022/03/17 08:50:00;;;;;;;;;;;22.20;37.20;;;;;;5073628;28;19924;-46
2022/03/17 08:52:28;;;;;;;;;;;22.20;37.20;;;;;;5073431;28;20463;-44
2022/03/17 08:54:55;;;;;;;;;;;22.20;37.20;;;;;;5073292;28;19978;-43
2022/03/17 08:57:22;;;;;;;;;;;22.20;37.10;;;;;;5073536;28;20495;-44
2022/03/17 08:59:49;;;;;;;;;;;22.20;37.10;;;;;;5073639;28;19925;-45
2022/03/17 09:02:16;;;;;;;;;;;22.20;37.00;;;;;;5073658;28;20364;-45
2022/03/17 09:04:44;;;;;;;;;;;22.20;37.00;;;;;;5073159;28;19924;-43
2022/03/17 09:07:11;;;;;;;;;;;22.30;37.00;;;;;;5073536;28;20027;-45
2022/03/17 09:09:39;;;;;;;;;;;22.30;37.00;;;;;;5072700;28;20396;-45
2022/03/17 09:12:07;;;;;;;;;;;22.30;36.90;;;;;;5073454;28;19971;-42
2022/03/17 09:14:36;;;;;;;;;;;22.30;36.90;;;;;;5073831;28;19973;-44
2022/03/17 09:17:04;;;;;;;;;;;22.30;36.90;;;;;;5073567;28;19925;-44
2022/03/17 09:19:32;;;;;;;;;;;22.30;36.90;;;;;;5072583;28;19973;-43
2022/03/17 09:21:59;;;;;;;;;;;22.30;36.80;;;;;;5073067;28;19924;-42
2022/03/17 09:24:30;;;;;;;;;;;22.40;36.90;;;;;;5072545;28;19924;-48
2022/03/17 09:26:58;;;;;;;;;;;22.40;36.80;;;;;;5073733;28;19994;-44
2022/03/17 09:29:28;;;;;;;;;;;22.40;36.80;;;;;;5073365;28;19924;-44
2022/03/17 09:31:58;;;;;;;;;;;22.40;36.80;;;;;;5073640;28;20352;-44
2022/03/17 09:34:26;;;;;;;;;;;22.40;36.80;;;;;;5072849;28;19925;-46
2022/03/17 09:36:53;;;;;;;;;;;22.40;36.70;;;;;;5073288;28;19983;-44
2022/03/17 09:42:05;;;;;;;;;;;22.50;36.80;;;;;;5073312;28;19932;-44
2022/03/17 09:44:32;;;;;;;;;;;22.50;36.70;;;;;;5073164;28;19972;-43
2022/03/17 09:46:59;;;;;;;;;;;22.50;36.60;;;;;;5073394;28;19928;-43
2022/03/17 09:49:27;;;;;;;;;;;22.50;36.60;;;;;;5072443;28;19925;-44
2022/03/17 09:51:56;;;;;;;;;;;22.50;36.50;;;;;;5073296;28;19963;-46
2022/03/17 09:54:23;;;;;;;;;;;22.60;36.60;;;;;;5072591;28;20007;-46
2022/03/17 09:56:50;;;;;;;;;;;22.60;36.50;;;;;;5073110;28;20019;-42
2022/03/17 09:59:17;;;;;;;;;;;22.60;36.50;;;;;;5072946;28;20011;-44
2022/03/17 10:01:44;;;;;;;;;;;22.60;36.50;;;;;;5073326;28;19924;-45
2022/03/17 10:04:13;;;;;;;;;;;22.60;36.50;;;;;;5072580;28;19979;-44
2022/03/17 10:06:40;;;;;;;;;;;22.70;36.50;;;;;;5073034;28;19982;-43
2022/03/17 10:09:07;;;;;;;;;;;22.70;36.50;;;;;;5075423;28;19972;-46
2022/03/17 10:11:37;;;;;;;;;;;22.60;36.40;;;;;;5076612;28;19964;-44
2022/03/17 10:14:06;;;;;;;;;;;22.70;36.40;;;;;;5076649;28;20024;-46
2022/03/17 10:16:33;;;;;;;;;;;22.70;36.40;;;;;;5077367;28;19978;-43
2022/03/17 10:19:02;;;;;;;;;;;22.70;36.30;;;;;;5075867;28;20322;-44
2022/03/17 10:21:30;;;;;;;;;;;22.70;36.30;;;;;;5076179;28;19960;-46
2022/03/17 10:24:04;;;;;;;;;;;22.70;36.30;;;;;;5076193;28;19950;-42
2022/03/17 10:26:34;;;;;;;;;;;22.80;36.40;;;;;;5077145;28;20241;-43
2022/03/17 10:29:22;;;;;;;;;;;22.80;36.40;;;;;;5076642;28;19928;-43
2022/03/17 10:32:03;;;;;;;;;;;22.80;36.40;;;;;;5076300;28;20379;-44
2022/03/17 10:34:48;;;;;;;;;;;22.80;36.30;;;;;;5058056;28;19936;-43
2022/03/17 10:37:17;;;;;;;;;;;22.80;36.30;;;;;;5076197;28;19925;-50
2022/03/17 10:39:45;;;;;;;;;;;22.80;36.30;;;;;;5075655;28;19964;-50
2022/03/17 10:42:12;;;;;;;;;;;22.80;36.20;;;;;;5076061;28;19924;-51
2022/03/17 10:44:40;;;;;;;;;;;22.90;36.30;;;;;;5076323;28;19968;-50
2022/03/17 10:47:08;;;;;;;;;;;22.80;36.20;;;;;;5041920;28;19924;-51
2022/03/17 10:49:36;;;;;;;;;;;22.90;36.30;;;;;;5075472;28;19968;-49
2022/03/17 10:52:03;;;;;;;;;;;22.90;36.30;;;;;;5075988;28;19933;-51
2022/03/17 10:54:32;;;;;;;;;;;22.90;36.30;;;;;;5074985;28;20030;-48
2022/03/17 10:57:08;;;;;;;;;;;22.90;36.20;;;;;;5076153;28;19928;-48
2022/03/17 10:59:46;;;;;;;;;;;23.00;36.30;;;;;;5075993;28;19928;-48
2022/03/17 11:02:16;;;;;;;;;;;23.00;36.20;;;;;;5075696;28;19978;-44
2022/03/17 11:04:45;;;;;;;;;;;23.00;36.20;;;;;;5075493;28;20441;-46
2022/03/17 11:07:17;;;;;;;;;;;23.00;36.10;;;;;;5075629;28;19932;-45
2022/03/17 11:09:45;;;;;;;;;;;23.00;36.10;;;;;;5075092;28;19947;-45
2022/03/17 11:12:17;;;;;;;;;;;23.00;36.10;;;;;;5058272;28;19970;-46
2022/03/17 11:14:46;;;;;;;;;;;23.00;36.80;;;;;;5075487;28;19929;-48
2022/03/17 11:17:36;;;;;;;;;;;23.10;36.20;;;;;;5075236;28;20380;-47
2022/03/17 11:20:05;;;;;;;;;;;23.10;36.20;;;;;;5074174;28;19931;-45
2022/03/17 11:22:34;;;;;;;;;;;23.10;36.20;;;;;;5075426;28;20355;-46
2022/03/17 11:25:17;;;;;;;;;;;23.10;36.20;;;;;;5074742;28;20003;-46
2022/03/17 11:27:48;;;;;;;;;;;23.10;36.20;;;;;;5075164;28;19967;-46
2022/03/17 11:30:17;;;;;;;;;;;23.10;36.10;;;;;;5075542;28;19932;-51
2022/03/17 11:32:54;;;;;;;;;;;23.10;36.10;;;;;;5075121;28;19983;-50
2022/03/17 11:35:25;;;;;;;;;;;23.10;36.10;;;;;;5074325;28;19924;-45
2022/03/17 11:38:12;;;;;;;;;;;23.10;36.10;;;;;;5075003;28;19924;-48
2022/03/17 11:40:58;;;;;;;;;;;23.20;36.10;;;;;;5074193;28;20022;-46
2022/03/17 11:43:47;;;;;;;;;;;23.20;36.20;;;;;;5075225;28;19970;-42
2022/03/17 11:46:15;;;;;;;;;;;23.20;36.20;;;;;;5075150;28;20342;-45
2022/03/17 11:48:44;;;;;;;;;;;23.20;36.10;;;;;;5074962;28;19924;-45
2022/03/17 11:51:12;;;;;;;;;;;23.30;36.20;;;;;;5074368;28;19986;-44
2022/03/17 11:53:51;;;;;;;;;;;23.30;36.10;;;;;;5074691;28;19950;-44
2022/03/17 11:56:29;;;;;;;;;;;23.30;36.10;;;;;;5073893;28;19925;-46
2022/03/17 11:58:57;;;;;;;;;;;23.30;36.10;;;;;;5074790;28;19954;-44
2022/03/17 12:01:34;;;;;;;;;;;23.30;36.20;;;;;;5074529;28;19931;-46
2022/03/17 12:04:04;;;;;;;;;;;23.30;36.10;;;;;;5075593;28;20027;-44
2022/03/17 12:06:32;;;;;;;;;;;23.30;36.10;;;;;;5074045;28;19924;-45
2022/03/17 12:09:01;;;;;;;;;;;23.30;36.00;;;;;;5074912;28;19940;-44
2022/03/17 12:11:30;;;;;;;;;;;23.30;36.00;;;;;;5055992;28;20424;-45
2022/03/17 12:14:18;;;;;;;;;;;23.40;36.10;;;;;;5074557;28;19967;-45
2022/03/17 12:17:01;;;;;;;;;;;23.40;36.10;;;;;;5074091;28;19929;-45
2022/03/17 12:19:29;;;;;;;;;;;23.40;36.10;;;;;;5074036;28;20011;-48
2022/03/17 12:22:02;;;;;;;;;;;23.40;36.10;;;;;;5073032;28;20449;-44
2022/03/17 12:24:38;;;;;;;;;;;23.40;36.10;;;;;;5074209;28;19924;-44
2022/03/17 12:27:14;;;;;;;;;;;23.40;36.10;;;;;;5073342;28;20376;-44
2022/03/17 12:29:42;;;;;;;;;;;23.40;36.10;;;;;;5073966;28;19979;-47
2022/03/17 12:32:11;;;;;;;;;;;23.40;36.10;;;;;;5074034;28;19967;-45
2022/03/17 12:34:38;;;;;;;;;;;23.50;36.20;;;;;;5073851;28;19978;-46
2022/03/17 12:37:06;;;;;;;;;;;23.50;36.10;;;;;;5073424;28;19974;-43
2022/03/17 12:39:36;;;;;;;;;;;23.50;36.10;;;;;;5074242;28;20037;-45
2022/03/17 12:42:14;;;;;;;;;;;23.50;36.10;;;;;;5056191;28;19978;-47
2022/03/17 12:44:52;;;;;;;;;;;23.50;36.10;;;;;;5036548;28;20335;-47
2022/03/17 12:47:20;;;;;;;;;;;23.50;36.00;;;;;;5052543;28;20020;-44
2022/03/17 12:49:48;;;;;;;;;;;23.50;36.00;;;;;;5054072;28;19953;-44
2022/03/17 12:52:23;;;;;;;;;;;23.50;36.00;;;;;;5069650;28;19979;-44
2022/03/17 12:54:58;;;;;;;;;;;23.50;36.10;;;;;;5074091;28;19962;-43
2022/03/17 12:57:26;;;;;;;;;;;23.50;36.80;;;;;;5073188;28;19964;-46
2022/03/17 12:59:53;;;;;;;;;;;23.50;36.20;;;;;;5073893;28;19960;-44
2022/03/17 13:02:20;;;;;;;;;;;23.50;36.10;;;;;;5073528;28;19970;-41
2022/03/17 13:04:49;;;;;;;;;;;23.60;36.80;;;;;;5073674;28;20410;-45
2022/03/17 13:07:16;;;;;;;;;;;23.50;36.10;;;;;;5073152;28;20104;-43
2022/03/17 13:09:44;;;;;;;;;;;23.50;36.20;;;;;;5073492;28;19933;-45
2022/03/17 13:14:57;;;;;;;;;;;23.50;36.20;;;;;;5073694;28;20363;-47
2022/03/17 13:17:38;;;;;;;;;;;23.50;36.20;;;;;;5073649;28;19924;-46
2022/03/17 13:20:08;;;;;;;;;;;23.50;36.20;;;;;;5073223;28;19931;-44
2022/03/17 13:22:39;;;;;;;;;;;23.50;36.20;;;;;;5072762;28;19924;-44
2022/03/17 13:25:10;;;;;;;;;;;23.50;36.20;;;;;;5073768;28;19924;-42
2022/03/17 13:27:38;;;;;;;;;;;23.50;36.30;;;;;;5072659;28;20402;-46
2022/03/17 13:30:14;;;;;;;;;;;23.50;36.20;;;;;;5073670;28;19956;-44
2022/03/17 13:32:43;;;;;;;;;;;23.50;36.30;;;;;;5073328;28;20439;-46
2022/03/17 13:35:12;;;;;;;;;;;23.50;36.30;;;;;;5073258;28;19970;-43
2022/03/17 13:37:43;;;;;;;;;;;23.50;36.40;;;;;;5072640;28;19978;-44
2022/03/17 13:40:14;;;;;;;;;;;23.50;36.40;;;;;;5073390;28;19964;-46
2022/03/17 13:43:00;;;;;;;;;;;23.50;36.40;;;;;;5056355;28;19956;-45
2022/03/17 13:45:34;;;;;;;;;;;23.50;36.40;;;;;;5057078;28;20021;-44
2022/03/17 13:48:03;;;;;;;;;;;23.50;36.40;;;;;;5057037;28;19925;-44
2022/03/17 13:50:31;;;;;;;;;;;23.50;36.40;;;;;;5057356;28;19925;-45
2022/03/17 13:53:03;;;;;;;;;;;23.50;36.40;;;;;;5072812;28;20397;-46
2022/03/17 13:55:31;;;;;;;;;;;23.50;36.40;;;;;;5076873;28;19925;-47
2022/03/17 13:58:08;;;;;;;;;;;23.50;36.40;;;;;;5076256;28;19963;-45
2022/03/17 14:00:35;;;;;;;;;;;23.50;36.50;;;;;;5076654;28;19925;-50
2022/03/17 14:03:16;;;;;;;;;;;23.50;36.50;;;;;;5076764;28;19931;-46
2022/03/17 14:06:01;;;;;;;;;;;23.40;37.10;;;;;;5077018;28;19929;-45
2022/03/17 14:08:28;;;;;;;;;;;23.40;36.50;;;;;;5057642;28;19939;-44
2022/03/17 14:10:59;;;;;;;;;;;23.40;36.80;;;;;;5056919;28;19925;-46
2022/03/17 14:13:26;;;;;;;;;;;23.40;36.60;;;;;;5056935;28;19925;-43
2022/03/17 14:15:53;;;;;;;;;;;23.40;36.60;;;;;;5056875;28;19924;-42
2022/03/17 14:18:20;;;;;;;;;;;23.40;36.70;;;;;;5056710;28;20018;-44
2022/03/17 14:20:47;;;;;;;;;;;23.40;36.60;;;;;;5056243;28;19995;-45
2022/03/17 14:26:00;;;;;;;;;;;23.30;36.60;;;;;;5076340;28;19970;-47
2022/03/17 14:28:27;;;;;;;;;;;23.30;36.70;;;;;;5076306;28;20015;-46
2022/03/17 14:30:54;;;;;;;;;;;23.30;36.70;;;;;;5076202;28;20007;-44
2022/03/17 14:33:21;;;;;;;;;;;23.30;36.70;;;;;;5076047;28;19924;-44
2022/03/17 14:35:51;;;;;;;;;;;23.30;36.70;;;;;;5076396;28;19924;-45
2022/03/17 14:38:20;;;;;;;;;;;23.30;36.70;;;;;;5075307;28;20388;-46
2022/03/17 14:40:47;;;;;;;;;;;23.30;36.80;;;;;;5075987;28;19929;-43
2022/03/17 14:43:14;;;;;;;;;;;23.30;36.80;;;;;;5075312;28;20438;-47
2022/03/17 14:45:41;;;;;;;;;;;23.30;36.80;;;;;;5076249;28;19925;-46